createdAt,value
2022-12-29T00:02:45.713Z,99388.77
2022-12-29T00:07:48.786Z,99388.05
2022-12-29T00:13:10.110Z,99382.77
2022-12-29T00:18:13.053Z,99376.11
2022-12-29T00:23:35.375Z,99378.63
2022-12-29T00:28:57.042Z,99376.54
2022-12-29T00:34:18.784Z,99373.64
2022-12-29T00:39:40.368Z,99368.70
2022-12-29T00:44:43.269Z,99363.92
2022-12-29T00:49:46.197Z,99366.71
2022-12-29T00:54:49.135Z,99369.75
2022-12-29T00:59:52.114Z,99375.73
2022-12-29T01:04:55.043Z,99370.18
2022-12-29T01:10:12.936Z,99373.70
2022-12-29T01:15:16.383Z,99374.29
2022-12-29T01:20:19.337Z,99372.11
2022-12-29T01:25:22.269Z,99363.18
2022-12-29T01:30:25.248Z,99355.66
2022-12-29T01:35:29.330Z,99354.55
2022-12-29T01:40:32.705Z,99348.91
2022-12-29T01:45:35.694Z,99337.92
2022-12-29T01:50:51.898Z,99327.70
2022-12-29T01:56:00.935Z,99322.15
2022-12-29T02:01:04.241Z,99318.83
2022-12-29T02:06:42.548Z,99314.71
2022-12-29T02:11:45.539Z,99312.16
2022-12-29T02:17:01.805Z,99306.18
2022-12-29T02:22:18.462Z,99300.08
2022-12-29T02:28:05.773Z,99290.86
2022-12-29T02:33:14.635Z,99292.72
2022-12-29T02:38:29.484Z,99288.19
2022-12-29T02:43:47.471Z,99280.66
2022-12-29T02:49:05.169Z,99283.55
2022-12-29T02:54:26.818Z,99277.66
2022-12-29T02:59:30.259Z,99277.88
2022-12-29T03:04:47.778Z,99282.17
2022-12-29T03:10:20.601Z,99284.64
2022-12-29T03:16:04.569Z,99290.99
2022-12-29T03:21:19.161Z,99290.84
2022-12-29T03:26:22.315Z,99291.58
2022-12-29T03:31:26.308Z,99292.09
2022-12-29T03:36:48.748Z,99296.36
2022-12-29T03:41:59.400Z,99296.77
2022-12-29T03:47:02.354Z,99295.67
2022-12-29T03:52:05.672Z,99289.31
2022-12-29T03:57:10.463Z,99282.68
2022-12-29T04:02:13.503Z,99275.87
2022-12-29T04:07:17.542Z,99271.13
2022-12-29T04:12:21.091Z,99260.69
2022-12-29T04:17:24.022Z,99233.41
2022-12-29T04:22:26.935Z,99227.13
2022-12-29T04:27:29.900Z,99217.58
2022-12-29T04:32:32.813Z,99227.33
2022-12-29T04:37:35.859Z,99227.65
2022-12-29T04:42:38.838Z,99210.60
2022-12-29T04:47:41.843Z,99197.31
2022-12-29T04:52:45.039Z,99204.27
2022-12-29T04:57:48.004Z,99216.21
2022-12-29T05:02:51.501Z,99202.52
2022-12-29T05:07:54.590Z,99194.72
2022-12-29T05:12:58.950Z,99189.95
2022-12-29T05:18:01.860Z,99191.10
2022-12-29T05:23:04.791Z,99187.83
2022-12-29T05:28:07.836Z,99195.35
2022-12-29T05:33:12.772Z,99189.88
2022-12-29T05:38:15.793Z,99192.14
2022-12-29T05:43:18.794Z,99191.55
2022-12-29T05:48:21.856Z,99179.96
2022-12-29T05:53:24.873Z,99176.31
2022-12-29T05:58:27.800Z,99178.33
2022-12-29T06:03:30.913Z,99171.54
2022-12-29T06:08:34.396Z,99166.27
2022-12-29T06:13:37.452Z,99162.82
2022-12-29T06:18:40.401Z,99159.03
2022-12-29T06:23:43.337Z,99163.58
2022-12-29T06:28:46.272Z,99159.80
2022-12-29T06:33:50.260Z,99162.42
2022-12-29T06:38:53.676Z,99161.39
2022-12-29T06:43:56.697Z,99154.99
2022-12-29T06:48:59.716Z,99151.42
2022-12-29T06:54:02.772Z,99156.05
2022-12-29T06:59:06.229Z,99166.89
2022-12-29T07:04:09.168Z,99164.44
2022-12-29T07:09:12.128Z,99158.21
2022-12-29T07:14:15.176Z,99161.33
2022-12-29T07:19:18.176Z,99161.23
2022-12-29T07:24:21.138Z,99154.52
2022-12-29T07:29:24.297Z,99153.44
2022-12-29T07:34:27.283Z,99141.77
2022-12-29T07:39:30.250Z,99139.58
2022-12-29T07:44:33.214Z,99142.64
2022-12-29T07:49:36.286Z,99148.23
2022-12-29T07:54:39.343Z,99146.24
2022-12-29T07:59:42.444Z,99141.66
2022-12-29T08:04:45.397Z,99136.92
2022-12-29T08:09:48.370Z,99132.89
2022-12-29T08:14:51.311Z,99131.90
2022-12-29T08:19:54.252Z,99143.02
2022-12-29T08:24:57.200Z,99151.65
2022-12-29T08:30:01.587Z,99154.46
2022-12-29T08:35:05.421Z,99156.92
2022-12-29T08:40:09.444Z,99146.17
2022-12-29T08:45:12.407Z,99137.24
2022-12-29T08:50:15.725Z,99142.80
2022-12-29T08:55:18.671Z,99136.04
2022-12-29T09:00:21.801Z,99135.67
2022-12-29T09:05:24.860Z,99136.31
2022-12-29T09:10:27.888Z,99139.58
2022-12-29T09:15:30.885Z,99141.57
2022-12-29T09:20:34.061Z,99138.80
2022-12-29T09:25:37.069Z,99134.58
2022-12-29T09:30:40.473Z,99130.29
2022-12-29T09:35:52.239Z,99129.78
2022-12-29T09:41:17.354Z,99129.00
2022-12-29T09:46:26.391Z,99117.70
2022-12-29T09:51:30.693Z,99111.77
2022-12-29T09:56:33.672Z,99114.94
2022-12-29T10:01:44.450Z,99113.70
2022-12-29T10:07:29.476Z,99113.03
2022-12-29T10:12:59.740Z,99109.38
2022-12-29T10:18:18.240Z,99094.52
2022-12-29T10:23:43.802Z,99076.38
2022-12-29T10:29:17.527Z,99052.22
2022-12-29T10:34:28.707Z,99043.83
2022-12-29T10:39:40.863Z,99052.02
2022-12-29T10:44:43.831Z,99050.66
2022-12-29T10:49:49.093Z,99057.52
2022-12-29T10:54:57.683Z,99064.65
2022-12-29T11:00:00.823Z,99061.88
2022-12-29T11:05:53.250Z,99062.94
2022-12-29T11:11:06.285Z,99060.45
2022-12-29T11:16:12.982Z,99046.41
2022-12-29T11:21:31.167Z,99036.20
2022-12-29T11:26:35.269Z,99030.41
2022-12-29T11:31:42.927Z,99031.40
2022-12-29T11:36:46.512Z,99031.45
2022-12-29T11:41:54.381Z,99028.47
2022-12-29T11:46:57.366Z,99022.26
2022-12-29T11:52:01.307Z,99026.89
2022-12-29T11:57:15.690Z,99027.48
2022-12-29T12:02:43.806Z,99022.55
2022-12-29T12:07:55.514Z,99022.37
2022-12-29T12:13:32.918Z,99031.02
2022-12-29T12:19:12.182Z,99027.87
2022-12-29T12:24:53.995Z,99030.17
2022-12-29T12:30:14.401Z,99023.37
2022-12-29T12:35:27.167Z,99024.34
2022-12-29T12:41:09.253Z,99024.60
2022-12-29T12:46:59.829Z,99026.48
2022-12-29T12:52:51.036Z,99021.12
2022-12-29T12:58:48.446Z,99025.63
2022-12-29T13:04:35.409Z,99026.33
2022-12-29T13:10:09.938Z,99030.15
2022-12-29T13:15:37.504Z,99035.70
2022-12-29T13:21:11.667Z,99039.39
2022-12-29T13:26:27.327Z,99025.86
2022-12-29T13:32:37.568Z,99027.66
2022-12-29T13:38:10.357Z,99027.65
2022-12-29T13:43:16.908Z,99028.89
2022-12-29T13:48:37.080Z,99029.12
2022-12-29T13:54:01.822Z,99036.00
2022-12-29T13:59:22.389Z,99030.52
2022-12-29T14:04:33.785Z,99037.77
2022-12-29T14:09:48.703Z,99038.40
2022-12-29T14:14:52.046Z,99041.23
2022-12-29T14:19:55.335Z,99041.02
2022-12-29T14:24:58.306Z,99040.95
2022-12-29T14:30:01.242Z,99043.61
2022-12-29T14:35:56.594Z,99041.81
2022-12-29T14:41:40.680Z,99034.38
2022-12-29T14:46:56.184Z,99035.90
2022-12-29T14:52:25.653Z,99038.71
2022-12-29T14:57:42.659Z,99038.91
2022-12-29T15:02:55.952Z,99041.61
2022-12-29T15:08:00.099Z,99039.64
2022-12-29T15:13:15.181Z,99041.08
2022-12-29T15:18:30.078Z,99041.29
2022-12-29T15:23:36.210Z,99039.95
2022-12-29T15:28:47.744Z,99035.27
2022-12-29T15:33:56.850Z,99042.73
2022-12-29T15:39:00.045Z,99045.00
2022-12-29T15:44:25.213Z,99038.52
2022-12-29T15:49:32.234Z,99047.50
2022-12-29T15:54:36.114Z,99048.23
2022-12-29T15:59:49.142Z,99050.42
2022-12-29T16:05:16.712Z,99054.16
2022-12-29T16:10:41.257Z,99051.09
2022-12-29T16:15:48.237Z,99052.98
2022-12-29T16:20:51.648Z,99047.10
2022-12-29T16:25:56.294Z,99047.41
2022-12-29T16:31:08.035Z,99056.73
2022-12-29T16:36:57.964Z,99061.82
2022-12-29T16:42:01.403Z,99064.60
2022-12-29T16:47:21.773Z,99051.63
2022-12-29T16:52:35.657Z,99050.86
2022-12-29T16:57:38.692Z,99047.89
2022-12-29T17:02:46.223Z,99046.84
2022-12-29T17:07:49.779Z,99050.34
2022-12-29T17:12:52.757Z,99051.23
2022-12-29T17:17:57.225Z,99047.31
2022-12-29T17:23:00.398Z,99046.73
2022-12-29T17:28:25.404Z,99045.67
2022-12-29T17:33:34.400Z,99053.48
2022-12-29T17:38:37.735Z,99049.34
2022-12-29T17:43:40.878Z,99047.09
2022-12-29T17:48:48.052Z,99044.13
2022-12-29T17:53:54.549Z,99040.23
2022-12-29T17:58:58.071Z,99038.24
2022-12-29T18:04:01.029Z,99044.52
2022-12-29T18:09:04.839Z,99050.27
2022-12-29T18:14:17.623Z,99051.25
2022-12-29T18:19:20.610Z,99052.02
2022-12-29T18:24:23.617Z,99055.13
2022-12-29T18:29:26.734Z,99058.33
2022-12-29T18:34:29.696Z,99053.45
2022-12-29T18:39:32.684Z,99054.05
2022-12-29T18:44:35.816Z,99054.66
2022-12-29T18:49:38.751Z,99051.89
2022-12-29T18:54:41.683Z,99050.00
2022-12-29T18:59:44.610Z,99052.88
2022-12-29T19:04:51.426Z,99051.89
2022-12-29T19:09:56.188Z,99052.50
2022-12-29T19:14:59.102Z,99049.20
2022-12-29T19:20:03.945Z,99047.88
2022-12-29T19:25:07.561Z,99044.21
2022-12-29T19:30:13.863Z,99040.69
2022-12-29T19:35:17.022Z,99041.13
2022-12-29T19:40:24.450Z,99042.11
2022-12-29T19:45:27.565Z,99049.62
2022-12-29T19:50:30.521Z,99055.88
2022-12-29T19:55:33.504Z,99059.61
2022-12-29T20:00:40.338Z,99059.62
2022-12-29T20:05:49.058Z,99058.62
2022-12-29T20:11:16.339Z,99056.36
2022-12-29T20:16:20.689Z,99046.66
2022-12-29T20:21:25.695Z,99054.21
2022-12-29T20:26:30.382Z,99050.02
2022-12-29T20:31:38.692Z,99051.79
2022-12-29T20:36:45.577Z,99053.48
2022-12-29T20:41:48.675Z,99059.54
2022-12-29T20:46:52.040Z,99061.95
2022-12-29T20:52:10.657Z,99061.84
2022-12-29T20:57:13.892Z,99065.59
2022-12-29T21:02:24.313Z,99065.44
2022-12-29T21:07:27.492Z,99072.83
2022-12-29T21:12:30.460Z,99074.98
2022-12-29T21:17:33.427Z,99072.86
2022-12-29T21:22:36.416Z,99074.12
2022-12-29T21:27:42.231Z,99072.34
2022-12-29T21:32:45.248Z,99067.98
2022-12-29T21:37:48.261Z,99072.86
2022-12-29T21:42:51.264Z,99074.05
2022-12-29T21:48:21.255Z,99074.15
2022-12-29T21:53:37.606Z,99074.02
2022-12-29T21:59:08.407Z,99082.89
2022-12-29T22:04:35.269Z,99079.40
2022-12-29T22:09:56.684Z,99083.67
2022-12-29T22:15:02.716Z,99080.90
2022-12-29T22:20:07.136Z,99081.39
2022-12-29T22:25:10.660Z,99080.42
2022-12-29T22:30:14.953Z,99077.36
2022-12-29T22:35:18.010Z,99076.45
2022-12-29T22:40:20.989Z,99075.55
2022-12-29T22:45:23.954Z,99078.27
2022-12-29T22:50:26.933Z,99080.21
2022-12-29T22:55:29.838Z,99090.33
2022-12-29T23:00:32.841Z,99084.33
2022-12-29T23:05:36.357Z,99085.52
2022-12-29T23:10:39.303Z,99087.07
2022-12-29T23:15:42.368Z,99093.55
2022-12-29T23:20:45.543Z,99095.08
2022-12-29T23:25:48.466Z,99092.85
2022-12-29T23:30:51.467Z,99099.20
2022-12-29T23:35:54.478Z,99098.77
2022-12-29T23:40:57.443Z,99102.85
2022-12-29T23:46:10.808Z,99100.73
2022-12-29T23:51:14.471Z,99107.31
2022-12-29T23:56:21.269Z,99106.16
